Time;durP1;ratioP1;P1;durP2;ratioP2;P2;SDS_P1;SDS_P2;PMS_P1;PMS_P2;Temp;Humidity;BMP_temperature;BMP_pressure;BME280_temperature;BME280_humidity;BME280_pressure;Samples;Min_cycle;Max_cycle;Signal;HPM_P1;HPM_P2
2023/09/29 00:01:38;;;;;;;;;;;16.20;99.90;;;;;;4996827;28;19940;-33
2023/09/29 00:04:05;;;;;;;;;;;16.10;99.90;;;;;;5014523;28;19931;-32
2023/09/29 00:06:33;;;;;;;;;;;16.10;99.90;;;;;;5013381;28;20341;-32
2023/09/29 00:09:00;;;;;;;;;;;16.10;99.90;;;;;;4978295;28;20305;-33
2023/09/29 00:11:31;;;;;;;;;;;16.10;99.90;;;;;;5003766;28;20019;-32
2023/09/29 00:13:58;;;;;;;;;;;16.10;99.90;;;;;;4995962;28;19925;-33
2023/09/29 00:16:24;;;;;;;;;;;16.10;99.90;;;;;;5014399;28;19925;-32
2023/09/29 00:18:51;;;;;;;;;;;16.10;99.90;;;;;;5014495;28;19969;-34
2023/09/29 00:21:18;;;;;;;;;;;16.10;99.90;;;;;;4997474;28;20238;-32
2023/09/29 00:23:45;;;;;;;;;;;16.10;99.90;;;;;;4997242;28;19932;-32
2023/09/29 00:26:12;;;;;;;;;;;16.10;99.90;;;;;;5013307;28;19926;-32
2023/09/29 00:28:40;;;;;;;;;;;16.00;99.90;;;;;;5004302;28;20366;-32
2023/09/29 00:31:08;;;;;;;;;;;16.10;99.90;;;;;;4994489;28;20479;-32
2023/09/29 00:33:35;;;;;;;;;;;16.10;99.90;;;;;;5002318;28;20398;-31
2023/09/29 00:36:02;;;;;;;;;;;16.10;99.90;;;;;;5013681;28;20337;-33
2023/09/29 00:38:28;;;;;;;;;;;16.10;99.90;;;;;;4997044;28;19983;-32
2023/09/29 00:40:55;;;;;;;;;;;16.10;99.90;;;;;;5020139;28;19980;-32
2023/09/29 00:43:22;;;;;;;;;;;16.10;99.90;;;;;;4996237;28;19926;-32
2023/09/29 00:45:50;;;;;;;;;;;16.10;99.90;;;;;;5013714;28;20996;-32
2023/09/29 00:48:17;;;;;;;;;;;16.10;99.90;;;;;;4995622;28;20397;-32
2023/09/29 00:50:44;;;;;;;;;;;16.10;99.90;;;;;;5013321;28;19976;-32
2023/09/29 00:53:13;;;;;;;;;;;16.10;99.90;;;;;;4995285;28;19929;-32
2023/09/29 00:55:41;;;;;;;;;;;16.10;99.90;;;;;;4993905;28;19933;-32
2023/09/29 00:58:08;;;;;;;;;;;16.10;99.90;;;;;;4995267;28;19925;-32
2023/09/29 01:00:37;;;;;;;;;;;16.10;99.90;;;;;;4996007;28;20390;-32
2023/09/29 01:03:06;;;;;;;;;;;16.00;99.90;;;;;;4991317;28;19925;-32
2023/09/29 01:05:35;;;;;;;;;;;16.00;99.90;;;;;;4991090;28;19930;-32
2023/09/29 01:08:08;;;;;;;;;;;16.00;99.90;;;;;;4996423;28;20290;-31
2023/09/29 01:10:34;;;;;;;;;;;16.10;99.90;;;;;;5013757;28;19925;-32
2023/09/29 01:13:01;;;;;;;;;;;16.00;99.90;;;;;;5012764;28;19925;-31
2023/09/29 01:15:28;;;;;;;;;;;16.00;99.90;;;;;;5012148;28;19929;-32
2023/09/29 01:17:55;;;;;;;;;;;16.00;99.90;;;;;;4993894;28;19926;-31
2023/09/29 01:20:28;;;;;;;;;;;16.00;99.90;;;;;;4994462;28;19936;-32
2023/09/29 01:22:55;;;;;;;;;;;16.00;99.90;;;;;;4996007;28;19973;-32
2023/09/29 01:25:23;;;;;;;;;;;16.00;99.90;;;;;;4995692;28;19932;-32
2023/09/29 01:27:50;;;;;;;;;;;15.90;99.90;;;;;;4994171;28;19965;-32
2023/09/29 01:30:18;;;;;;;;;;;15.90;99.90;;;;;;4994749;28;20306;-31
2023/09/29 01:32:46;;;;;;;;;;;15.90;99.90;;;;;;4995183;28;20016;-32
2023/09/29 01:35:15;;;;;;;;;;;15.90;99.90;;;;;;4993039;28;19926;-33
2023/09/29 01:37:42;;;;;;;;;;;16.00;99.90;;;;;;4988536;28;19926;-32
2023/09/29 01:40:10;;;;;;;;;;;16.00;99.90;;;;;;4994100;28;19929;-32
2023/09/29 01:42:38;;;;;;;;;;;16.00;99.90;;;;;;4994526;28;19930;-32
2023/09/29 01:45:08;;;;;;;;;;;16.00;99.90;;;;;;4994928;28;19976;-32
2023/09/29 01:47:36;;;;;;;;;;;16.00;99.90;;;;;;4994462;28;19956;-32
2023/09/29 01:50:03;;;;;;;;;;;16.00;99.90;;;;;;4994683;28;19929;-32
2023/09/29 01:52:29;;;;;;;;;;;16.00;99.90;;;;;;4994581;28;20366;-33
2023/09/29 01:54:56;;;;;;;;;;;16.00;99.90;;;;;;4995536;28;20325;-32
2023/09/29 01:57:23;;;;;;;;;;;16.00;99.90;;;;;;5013203;28;19932;-33
2023/09/29 01:59:52;;;;;;;;;;;16.10;99.90;;;;;;4995125;28;20056;-34
2023/09/29 02:02:18;;;;;;;;;;;16.10;99.90;;;;;;4994422;28;20377;-32
2023/09/29 02:04:45;;;;;;;;;;;16.10;99.90;;;;;;5012443;28;19925;-33
2023/09/29 02:07:12;;;;;;;;;;;16.10;99.90;;;;;;4995638;28;20412;-32
2023/09/29 02:09:38;;;;;;;;;;;16.10;99.90;;;;;;4990413;28;19973;-33
2023/09/29 02:12:05;;;;;;;;;;;16.10;99.90;;;;;;4993648;28;19929;-32
2023/09/29 02:14:32;;;;;;;;;;;16.10;99.90;;;;;;4979212;28;20175;-33
2023/09/29 02:17:00;;;;;;;;;;;16.10;99.90;;;;;;4994301;28;20365;-32
2023/09/29 02:19:27;;;;;;;;;;;16.10;99.90;;;;;;5010189;28;19932;-32
2023/09/29 02:21:53;;;;;;;;;;;16.20;99.90;;;;;;4994682;28;19925;-32
2023/09/29 02:24:21;;;;;;;;;;;16.10;99.90;;;;;;5025689;28;19925;-35
2023/09/29 02:26:48;;;;;;;;;;;16.10;99.90;;;;;;5014043;28;20229;-32
2023/09/29 02:29:16;;;;;;;;;;;16.20;99.90;;;;;;5011865;28;19926;-33
2023/09/29 02:31:43;;;;;;;;;;;16.20;99.90;;;;;;5011312;28;19929;-32
2023/09/29 02:34:12;;;;;;;;;;;16.20;99.90;;;;;;4999180;28;19925;-32
2023/09/29 02:36:40;;;;;;;;;;;16.20;99.90;;;;;;4989628;28;19937;-32
2023/09/29 02:39:08;;;;;;;;;;;16.20;99.90;;;;;;4992300;28;20014;-32
2023/09/29 02:41:36;;;;;;;;;;;16.20;99.90;;;;;;5009859;28;19937;-33
2023/09/29 02:44:02;;;;;;;;;;;16.20;99.90;;;;;;4991829;28;19926;-32
2023/09/29 02:46:29;;;;;;;;;;;16.20;99.90;;;;;;5020951;28;20365;-31
2023/09/29 02:48:56;;;;;;;;;;;16.20;99.90;;;;;;4998817;28;20185;-32
2023/09/29 02:51:24;;;;;;;;;;;16.20;99.90;;;;;;4993111;28;19929;-32
2023/09/29 02:53:54;;;;;;;;;;;16.20;99.90;;;;;;4984152;28;20012;-32
2023/09/29 02:56:23;;;;;;;;;;;16.30;99.90;;;;;;4990924;28;19980;-33
2023/09/29 02:58:54;;;;;;;;;;;16.30;99.90;;;;;;5010807;28;20401;-32
2023/09/29 03:01:22;;;;;;;;;;;16.30;99.90;;;;;;5010105;28;19932;-32
2023/09/29 03:03:49;;;;;;;;;;;16.30;99.90;;;;;;4993761;28;19976;-32
2023/09/29 03:06:20;;;;;;;;;;;16.30;99.90;;;;;;4994861;28;19929;-32
2023/09/29 03:08:49;;;;;;;;;;;16.30;99.90;;;;;;5001411;28;20298;-33
2023/09/29 03:11:16;;;;;;;;;;;16.30;99.90;;;;;;4993340;28;19932;-33
2023/09/29 03:13:43;;;;;;;;;;;16.40;99.90;;;;;;5011576;28;19926;-33
2023/09/29 03:16:10;;;;;;;;;;;16.40;99.90;;;;;;4994786;28;19976;-32
2023/09/29 03:18:37;;;;;;;;;;;16.40;99.90;;;;;;5008182;28;20012;-36
2023/09/29 03:21:04;;;;;;;;;;;16.40;99.90;;;;;;4982039;28;19926;-33
2023/09/29 03:23:34;;;;;;;;;;;16.40;99.90;;;;;;5011615;28;20369;-32
2023/09/29 03:26:02;;;;;;;;;;;16.40;99.90;;;;;;5011827;28;19929;-34
2023/09/29 03:28:29;;;;;;;;;;;16.40;99.90;;;;;;5000596;28;19929;-32
2023/09/29 03:30:55;;;;;;;;;;;16.40;99.90;;;;;;5014510;28;19926;-32
2023/09/29 03:33:22;;;;;;;;;;;16.40;99.90;;;;;;4997644;28;19985;-32
2023/09/29 03:35:49;;;;;;;;;;;16.40;99.90;;;;;;5015580;28;19977;-32
2023/09/29 03:38:20;;;;;;;;;;;16.40;99.90;;;;;;5014230;28;19972;-32
2023/09/29 03:40:47;;;;;;;;;;;16.40;99.90;;;;;;4987900;28;20297;-33
2023/09/29 03:43:15;;;;;;;;;;;16.40;99.90;;;;;;4996284;28;19926;-32
2023/09/29 03:45:42;;;;;;;;;;;16.40;99.90;;;;;;4997217;28;20378;-32
2023/09/29 03:48:09;;;;;;;;;;;16.40;99.90;;;;;;5014193;28;19930;-32
2023/09/29 03:50:36;;;;;;;;;;;16.40;99.90;;;;;;5013933;28;20363;-33
2023/09/29 03:53:02;;;;;;;;;;;16.40;99.90;;;;;;5014363;28;19926;-33
2023/09/29 03:55:29;;;;;;;;;;;16.40;99.90;;;;;;4997914;28;19933;-35
2023/09/29 03:57:56;;;;;;;;;;;16.40;99.90;;;;;;4997012;28;19993;-32
2023/09/29 04:00:24;;;;;;;;;;;16.40;99.90;;;;;;4995779;28;19933;-33
2023/09/29 04:02:50;;;;;;;;;;;16.40;99.90;;;;;;4995394;28;19981;-34
2023/09/29 04:05:18;;;;;;;;;;;16.40;99.90;;;;;;5013663;28;20301;-33
2023/09/29 04:07:44;;;;;;;;;;;16.50;99.90;;;;;;4996346;28;19925;-32
2023/09/29 04:10:12;;;;;;;;;;;16.50;99.90;;;;;;4997018;28;19926;-33
2023/09/29 04:12:39;;;;;;;;;;;16.50;99.90;;;;;;5014323;28;19969;-33
2023/09/29 04:15:06;;;;;;;;;;;16.50;99.90;;;;;;5014390;28;19929;-33
2023/09/29 04:17:34;;;;;;;;;;;16.60;99.90;;;;;;4995949;28;19932;-33
2023/09/29 04:20:02;;;;;;;;;;;16.60;99.90;;;;;;4989479;28;19949;-31
2023/09/29 04:22:28;;;;;;;;;;;16.60;99.90;;;;;;4996213;28;19929;-32
2023/09/29 04:24:55;;;;;;;;;;;16.70;99.90;;;;;;5015242;28;19980;-32
2023/09/29 04:27:22;;;;;;;;;;;16.70;99.90;;;;;;5013231;28;19981;-33
2023/09/29 04:29:48;;;;;;;;;;;16.70;99.90;;;;;;5012628;28;19933;-32
2023/09/29 04:32:15;;;;;;;;;;;16.70;99.90;;;;;;4993550;28;19965;-33
2023/09/29 04:34:43;;;;;;;;;;;16.70;99.90;;;;;;4996643;28;19972;-32
2023/09/29 04:37:10;;;;;;;;;;;16.70;99.90;;;;;;5014809;28;19925;-32
2023/09/29 04:39:37;;;;;;;;;;;16.70;99.90;;;;;;4993498;28;19933;-33
2023/09/29 04:42:04;;;;;;;;;;;16.70;99.90;;;;;;5012299;28;19981;-30
2023/09/29 04:44:31;;;;;;;;;;;16.70;99.90;;;;;;5013416;28;19936;-34
2023/09/29 04:46:58;;;;;;;;;;;16.70;99.90;;;;;;5012522;28;19925;-31
2023/09/29 04:49:24;;;;;;;;;;;16.70;99.90;;;;;;5013035;28;20361;-32
2023/09/29 04:51:52;;;;;;;;;;;16.70;99.90;;;;;;5011517;28;20382;-32
2023/09/29 04:54:19;;;;;;;;;;;16.70;99.90;;;;;;4994830;28;19929;-34
2023/09/29 04:56:46;;;;;;;;;;;16.70;99.90;;;;;;4994330;28;19985;-32
2023/09/29 04:59:12;;;;;;;;;;;16.70;99.90;;;;;;5012318;28;19930;-32
2023/09/29 05:01:39;;;;;;;;;;;16.70;99.90;;;;;;5009106;28;20381;-32
2023/09/29 05:04:06;;;;;;;;;;;16.70;99.90;;;;;;4979081;28;20358;-32
2023/09/29 05:06:32;;;;;;;;;;;16.70;99.90;;;;;;4993425;28;19977;-33
2023/09/29 05:09:00;;;;;;;;;;;16.80;99.90;;;;;;5011107;28;20350;-34
2023/09/29 05:11:27;;;;;;;;;;;16.90;99.90;;;;;;5013255;28;20289;-34
2023/09/29 05:13:54;;;;;;;;;;;16.80;99.90;;;;;;5010032;28;20331;-33
2023/09/29 05:16:21;;;;;;;;;;;16.80;99.90;;;;;;4991635;28;19926;-32
2023/09/29 05:18:48;;;;;;;;;;;16.80;99.90;;;;;;4990367;28;19929;-32
2023/09/29 05:21:15;;;;;;;;;;;16.80;99.90;;;;;;5010824;28;19925;-34
2023/09/29 05:23:42;;;;;;;;;;;16.90;99.90;;;;;;4991750;28;19929;-34
2023/09/29 05:26:10;;;;;;;;;;;16.90;99.90;;;;;;4994555;28;20012;-33
2023/09/29 05:28:37;;;;;;;;;;;16.90;99.90;;;;;;4993471;28;20390;-33
2023/09/29 05:31:04;;;;;;;;;;;16.90;99.90;;;;;;5006755;28;19988;-33
2023/09/29 05:33:31;;;;;;;;;;;17.00;99.90;;;;;;4993580;28;20300;-33
2023/09/29 05:35:57;;;;;;;;;;;17.00;99.90;;;;;;5009996;28;21431;-33
2023/09/29 05:38:24;;;;;;;;;;;17.00;99.90;;;;;;5009637;28;20386;-33
2023/09/29 05:40:51;;;;;;;;;;;17.00;99.90;;;;;;5011177;28;20349;-33
2023/09/29 05:43:19;;;;;;;;;;;17.00;99.90;;;;;;4991072;28;19976;-32
2023/09/29 05:45:46;;;;;;;;;;;17.00;99.90;;;;;;4990577;28;19925;-33
2023/09/29 05:48:12;;;;;;;;;;;17.10;99.90;;;;;;5011535;28;19926;-34
2023/09/29 05:50:39;;;;;;;;;;;17.10;99.90;;;;;;5011502;28;19972;-32
2023/09/29 05:53:06;;;;;;;;;;;17.10;99.90;;;;;;4993231;28;19973;-32
2023/09/29 05:55:33;;;;;;;;;;;17.10;99.90;;;;;;5009829;28;19996;-32
2023/09/29 05:57:59;;;;;;;;;;;17.10;99.90;;;;;;5005505;28;19987;-32
2023/09/29 06:00:27;;;;;;;;;;;17.10;99.90;;;;;;4987381;28;19929;-32
2023/09/29 06:02:54;;;;;;;;;;;17.10;99.90;;;;;;5006505;28;19932;-33
2023/09/29 06:05:21;;;;;;;;;;;17.10;99.90;;;;;;5006596;28;19941;-32
2023/09/29 06:07:48;;;;;;;;;;;17.10;99.90;;;;;;4990414;28;19984;-33
2023/09/29 06:10:15;;;;;;;;;;;17.10;99.90;;;;;;4990858;28;19936;-35
2023/09/29 06:12:41;;;;;;;;;;;17.10;99.90;;;;;;4989083;28;20023;-33
2023/09/29 06:15:09;;;;;;;;;;;17.10;99.90;;;;;;5010184;28;19933;-33
2023/09/29 06:17:37;;;;;;;;;;;17.10;99.90;;;;;;4994028;28;20048;-33
2023/09/29 06:20:04;;;;;;;;;;;17.10;99.90;;;;;;5011596;28;19925;-32
2023/09/29 06:22:31;;;;;;;;;;;17.10;99.90;;;;;;5010598;28;19954;-32
2023/09/29 06:24:57;;;;;;;;;;;17.20;99.90;;;;;;4993655;28;19960;-33
2023/09/29 06:27:25;;;;;;;;;;;17.20;99.90;;;;;;5009846;28;19937;-33
2023/09/29 06:29:52;;;;;;;;;;;17.20;99.90;;;;;;5010640;28;19988;-33
2023/09/29 06:32:19;;;;;;;;;;;17.20;99.90;;;;;;4991582;28;21241;-33
2023/09/29 06:34:47;;;;;;;;;;;17.20;99.90;;;;;;4975504;28;19973;-33
2023/09/29 06:37:13;;;;;;;;;;;17.20;99.90;;;;;;4974738;28;19926;-33
2023/09/29 06:39:40;;;;;;;;;;;17.20;99.90;;;;;;4974356;28;19926;-35
2023/09/29 06:42:07;;;;;;;;;;;17.20;99.90;;;;;;4995663;28;19948;-33
2023/09/29 06:44:33;;;;;;;;;;;17.20;99.90;;;;;;4993932;28;20305;-34
2023/09/29 06:47:00;;;;;;;;;;;17.20;99.90;;;;;;4993894;28;19926;-37
2023/09/29 06:49:27;;;;;;;;;;;17.20;99.90;;;;;;4993185;28;19933;-34
2023/09/29 06:51:55;;;;;;;;;;;17.30;99.90;;;;;;5009874;28;19930;-33
2023/09/29 06:54:22;;;;;;;;;;;17.20;99.90;;;;;;4991302;28;19930;-33
2023/09/29 06:56:48;;;;;;;;;;;17.30;99.90;;;;;;5002353;28;19926;-33
2023/09/29 06:59:15;;;;;;;;;;;17.30;99.90;;;;;;5008709;28;19982;-32
2023/09/29 07:01:42;;;;;;;;;;;17.30;99.90;;;;;;5010218;28;19926;-33
2023/09/29 07:04:10;;;;;;;;;;;17.30;99.90;;;;;;4996522;28;19929;-34
2023/09/29 07:06:36;;;;;;;;;;;17.40;99.90;;;;;;5013188;28;20028;-34
2023/09/29 07:09:04;;;;;;;;;;;17.40;99.90;;;;;;5014626;28;19930;-32
2023/09/29 07:11:31;;;;;;;;;;;17.40;99.90;;;;;;5013796;28;20294;-32
2023/09/29 07:13:58;;;;;;;;;;;17.40;99.90;;;;;;4993649;28;19933;-31
2023/09/29 07:16:24;;;;;;;;;;;17.40;99.90;;;;;;4990812;28;19925;-31
2023/09/29 07:18:51;;;;;;;;;;;17.40;99.90;;;;;;5013759;28;19984;-31
2023/09/29 07:21:19;;;;;;;;;;;17.40;99.90;;;;;;4997263;28;19925;-31
2023/09/29 07:23:45;;;;;;;;;;;17.40;99.90;;;;;;4999804;28;19925;-30
2023/09/29 07:26:13;;;;;;;;;;;17.40;99.90;;;;;;4996795;28;19969;-32
2023/09/29 07:28:40;;;;;;;;;;;17.40;99.90;;;;;;4996366;28;19926;-31
2023/09/29 07:31:07;;;;;;;;;;;17.50;99.90;;;;;;5023291;28;19925;-31
2023/09/29 07:33:34;;;;;;;;;;;17.50;99.90;;;;;;5000073;28;19980;-32
2023/09/29 07:36:00;;;;;;;;;;;17.60;99.90;;;;;;5013902;28;19976;-34
2023/09/29 07:38:27;;;;;;;;;;;17.60;99.90;;;;;;5011813;28;19941;-32
2023/09/29 07:40:54;;;;;;;;;;;17.60;99.90;;;;;;5009169;28;20555;-32
2023/09/29 07:43:22;;;;;;;;;;;17.60;99.90;;;;;;5008977;28;20452;-33
2023/09/29 07:45:48;;;;;;;;;;;17.70;99.90;;;;;;4993459;28;19925;-34
2023/09/29 07:48:16;;;;;;;;;;;17.80;99.90;;;;;;4991750;28;19929;-32
2023/09/29 07:50:42;;;;;;;;;;;17.90;99.90;;;;;;4995780;28;19925;-31
2023/09/29 07:53:11;;;;;;;;;;;18.00;99.90;;;;;;5011625;28;19925;-33
2023/09/29 07:55:37;;;;;;;;;;;18.00;99.90;;;;;;5011043;28;20358;-31
2023/09/29 07:58:04;;;;;;;;;;;18.10;99.90;;;;;;5017671;28;20218;-33
2023/09/29 08:00:32;;;;;;;;;;;18.20;99.90;;;;;;4995072;28;19934;-33
2023/09/29 08:03:00;;;;;;;;;;;18.20;99.90;;;;;;5007565;28;20003;-32
2023/09/29 08:05:29;;;;;;;;;;;18.40;99.90;;;;;;5011675;28;19929;-36
2023/09/29 08:07:56;;;;;;;;;;;18.50;99.90;;;;;;5007752;28;19960;-34
2023/09/29 08:10:23;;;;;;;;;;;18.50;99.90;;;;;;5012508;28;19925;-32
2023/09/29 08:12:49;;;;;;;;;;;18.60;99.90;;;;;;5010583;28;19980;-32
2023/09/29 08:15:16;;;;;;;;;;;18.70;99.90;;;;;;4990144;28;20325;-31
2023/09/29 08:17:44;;;;;;;;;;;18.70;99.90;;;;;;5013059;28;19936;-33
2023/09/29 08:20:12;;;;;;;;;;;18.80;99.90;;;;;;5011891;28;19930;-32
2023/09/29 08:22:39;;;;;;;;;;;18.90;99.90;;;;;;5013312;28;19925;-32
2023/09/29 08:25:07;;;;;;;;;;;19.00;99.90;;;;;;5012340;28;19932;-32
2023/09/29 08:27:34;;;;;;;;;;;19.00;99.90;;;;;;5013230;28;19992;-32
2023/09/29 08:30:01;;;;;;;;;;;19.10;99.90;;;;;;5012822;28;19933;-32
2023/09/29 08:32:28;;;;;;;;;;;19.10;99.90;;;;;;5011723;28;19925;-32
2023/09/29 08:34:56;;;;;;;;;;;19.20;99.90;;;;;;4987903;28;20333;-32
2023/09/29 08:37:23;;;;;;;;;;;19.30;99.90;;;;;;4995021;28;19933;-34
2023/09/29 08:39:50;;;;;;;;;;;19.30;99.90;;;;;;5012892;28;19936;-33
2023/09/29 08:42:19;;;;;;;;;;;19.30;99.90;;;;;;5012881;28;19932;-33
2023/09/29 08:44:45;;;;;;;;;;;19.40;99.90;;;;;;4989979;28;19926;-33
2023/09/29 08:47:13;;;;;;;;;;;19.50;99.90;;;;;;4992293;28;20404;-32
2023/09/29 08:49:40;;;;;;;;;;;19.60;99.90;;;;;;4994454;28;19976;-32
2023/09/29 08:52:08;;;;;;;;;;;19.70;99.90;;;;;;4992007;28;19940;-33
2023/09/29 08:54:35;;;;;;;;;;;19.80;99.90;;;;;;5010100;28;19926;-33
2023/09/29 08:57:03;;;;;;;;;;;19.90;99.90;;;;;;4993933;28;19933;-32
2023/09/29 08:59:29;;;;;;;;;;;20.00;99.90;;;;;;5000703;28;19932;-32
2023/09/29 09:01:58;;;;;;;;;;;20.10;99.90;;;;;;5003478;28;19991;-33
2023/09/29 09:04:27;;;;;;;;;;;20.20;99.90;;;;;;5001733;28;19961;-33
2023/09/29 09:06:53;;;;;;;;;;;20.30;99.90;;;;;;5001600;28;20036;-32
2023/09/29 09:09:24;;;;;;;;;;;20.40;99.90;;;;;;4995114;28;19929;-32
2023/09/29 09:11:50;;;;;;;;;;;20.50;99.90;;;;;;4995001;28;19933;-32
2023/09/29 09:14:18;;;;;;;;;;;20.60;99.90;;;;;;4994021;28;19926;-34
2023/09/29 09:16:45;;;;;;;;;;;20.60;99.90;;;;;;4996658;28;20381;-32
2023/09/29 09:19:12;;;;;;;;;;;20.70;99.90;;;;;;4986085;28;19925;-33
2023/09/29 09:21:39;;;;;;;;;;;20.70;99.90;;;;;;4987121;28;19983;-32
2023/09/29 09:24:06;;;;;;;;;;;20.70;99.90;;;;;;5011428;28;19988;-32
2023/09/29 09:26:34;;;;;;;;;;;20.70;99.90;;;;;;4994199;28;19929;-32
2023/09/29 09:29:08;;;;;;;;;;;20.80;99.90;;;;;;5011534;28;20377;-32
2023/09/29 09:31:42;;;;;;;;;;;20.70;99.90;;;;;;5010640;28;20360;-32
2023/09/29 09:34:09;;;;;;;;;;;20.80;99.90;;;;;;4994091;28;19930;-34
2023/09/29 09:36:44;;;;;;;;;;;20.80;99.90;;;;;;5011586;28;20007;-33
2023/09/29 09:39:11;;;;;;;;;;;20.90;99.90;;;;;;4994320;28;19971;-33
2023/09/29 09:41:39;;;;;;;;;;;21.00;99.90;;;;;;4994067;28;20275;-34
2023/09/29 09:44:06;;;;;;;;;;;21.00;99.90;;;;;;5011380;28;19980;-34
2023/09/29 09:46:33;;;;;;;;;;;20.90;99.90;;;;;;5001629;28;19971;-33
2023/09/29 09:49:07;;;;;;;;;;;20.90;99.90;;;;;;4988031;28;19930;-33
2023/09/29 09:51:35;;;;;;;;;;;20.90;99.90;;;;;;5009908;28;19930;-35
2023/09/29 09:54:03;;;;;;;;;;;20.90;99.90;;;;;;4993509;28;20386;-34
2023/09/29 09:56:31;;;;;;;;;;;21.00;99.90;;;;;;5005680;28;20040;-33
2023/09/29 09:58:59;;;;;;;;;;;21.10;99.90;;;;;;4991539;28;20455;-33
2023/09/29 10:01:27;;;;;;;;;;;21.10;99.90;;;;;;4993352;28;19948;-32
2023/09/29 10:03:54;;;;;;;;;;;21.10;99.90;;;;;;4993166;28;20004;-34
2023/09/29 10:06:21;;;;;;;;;;;21.20;99.90;;;;;;5011376;28;19987;-34
2023/09/29 10:08:51;;;;;;;;;;;21.20;99.90;;;;;;5009936;28;19926;-34
2023/09/29 10:11:18;;;;;;;;;;;21.20;99.90;;;;;;5001233;28;20409;-33
2023/09/29 10:13:45;;;;;;;;;;;21.20;99.90;;;;;;4989448;28;20424;-35
2023/09/29 10:16:22;;;;;;;;;;;21.20;99.90;;;;;;4991082;28;19929;-32
2023/09/29 10:18:56;;;;;;;;;;;21.20;99.90;;;;;;4990872;28;19932;-32
2023/09/29 10:21:23;;;;;;;;;;;21.20;99.90;;;;;;4989857;28;20061;-33
2023/09/29 10:23:50;;;;;;;;;;;21.20;99.90;;;;;;5000560;28;19929;-32
2023/09/29 10:26:17;;;;;;;;;;;21.20;99.90;;;;;;4985394;28;20004;-33
2023/09/29 10:28:45;;;;;;;;;;;21.10;99.90;;;;;;4987801;28;19972;-32
2023/09/29 10:31:13;;;;;;;;;;;21.10;99.90;;;;;;4991425;28;19929;-33
2023/09/29 10:33:52;;;;;;;;;;;21.10;99.90;;;;;;4992657;28;20024;-32
2023/09/29 10:36:19;;;;;;;;;;;21.10;99.90;;;;;;5006815;28;20368;-32
2023/09/29 10:38:47;;;;;;;;;;;21.10;99.90;;;;;;4990875;28;19926;-32
2023/09/29 10:41:14;;;;;;;;;;;21.10;99.90;;;;;;5008226;28;20298;-33
2023/09/29 10:43:42;;;;;;;;;;;21.10;99.90;;;;;;5009562;28;19952;-32
2023/09/29 10:46:09;;;;;;;;;;;21.10;99.90;;;;;;4994583;28;19934;-32
2023/09/29 10:48:43;;;;;;;;;;;21.00;99.90;;;;;;4993764;28;20020;-33
2023/09/29 10:51:11;;;;;;;;;;;21.00;99.90;;;;;;5010815;28;19926;-32
2023/09/29 10:53:38;;;;;;;;;;;21.10;99.90;;;;;;5010810;28;20445;-32
2023/09/29 10:56:05;;;;;;;;;;;21.10;99.90;;;;;;4985604;28;19926;-33
2023/09/29 10:58:37;;;;;;;;;;;21.10;99.90;;;;;;5007462;28;19925;-34
2023/09/29 11:01:03;;;;;;;;;;;21.20;99.90;;;;;;4994833;28;19979;-32
2023/09/29 11:03:30;;;;;;;;;;;21.40;99.90;;;;;;5011394;28;19926;-32
2023/09/29 11:05:58;;;;;;;;;;;21.40;99.90;;;;;;4994628;28;19926;-32
2023/09/29 11:08:30;;;;;;;;;;;21.40;99.90;;;;;;4993308;28;19932;-32
2023/09/29 11:10:57;;;;;;;;;;;21.40;99.90;;;;;;4989333;28;19939;-32
2023/09/29 11:13:24;;;;;;;;;;;21.40;99.90;;;;;;4994090;28;19926;-32
2023/09/29 11:15:51;;;;;;;;;;;21.40;99.90;;;;;;4994812;28;19930;-33
2023/09/29 11:18:27;;;;;;;;;;;21.40;99.90;;;;;;4994237;28;20021;-32
2023/09/29 11:20:54;;;;;;;;;;;21.40;99.90;;;;;;5012470;28;19971;-32
2023/09/29 11:23:21;;;;;;;;;;;21.40;99.90;;;;;;4990054;28;19984;-32
2023/09/29 11:25:49;;;;;;;;;;;21.30;99.90;;;;;;4994391;28;20509;-33
2023/09/29 11:28:16;;;;;;;;;;;21.30;99.90;;;;;;5007422;28;19932;-33
2023/09/29 11:30:43;;;;;;;;;;;21.30;99.90;;;;;;4993086;28;20310;-33
2023/09/29 11:33:10;;;;;;;;;;;21.30;99.90;;;;;;5009962;28;20008;-33
2023/09/29 11:35:37;;;;;;;;;;;21.20;99.90;;;;;;5011026;28;19925;-33
2023/09/29 11:38:05;;;;;;;;;;;21.20;99.90;;;;;;4993641;28;19926;-33
2023/09/29 11:40:32;;;;;;;;;;;21.20;99.90;;;;;;5010706;28;19933;-33
2023/09/29 11:43:00;;;;;;;;;;;21.30;99.90;;;;;;5010694;28;20428;-32
2023/09/29 11:45:27;;;;;;;;;;;21.20;99.90;;;;;;4992631;28;19966;-33
2023/09/29 11:47:53;;;;;;;;;;;21.20;99.90;;;;;;4993633;28;19973;-33
2023/09/29 11:50:20;;;;;;;;;;;21.20;99.90;;;;;;4995705;28;20279;-34
2023/09/29 11:52:47;;;;;;;;;;;21.30;99.90;;;;;;4995793;28;19933;-33
2023/09/29 11:55:13;;;;;;;;;;;21.40;99.90;;;;;;4997565;28;20379;-32
2023/09/29 11:57:41;;;;;;;;;;;21.40;99.90;;;;;;5014878;28;20403;-33
2023/09/29 12:00:10;;;;;;;;;;;21.50;99.90;;;;;;4995159;28;19925;-33
2023/09/29 12:02:37;;;;;;;;;;;21.50;99.90;;;;;;4995952;28;20023;-34
2023/09/29 12:05:04;;;;;;;;;;;21.60;99.90;;;;;;5014277;28;19926;-33
2023/09/29 12:07:31;;;;;;;;;;;21.70;99.90;;;;;;5006208;28;20020;-33
2023/09/29 12:09:58;;;;;;;;;;;21.70;99.90;;;;;;4996745;28;19980;-33
2023/09/29 12:12:24;;;;;;;;;;;21.80;99.90;;;;;;4995954;28;19984;-34
2023/09/29 12:14:52;;;;;;;;;;;21.80;99.90;;;;;;4996306;28;19932;-33
2023/09/29 12:17:20;;;;;;;;;;;21.80;99.90;;;;;;4995240;28;19926;-34
2023/09/29 12:19:47;;;;;;;;;;;21.80;99.90;;;;;;5013479;28;19929;-33
2023/09/29 12:22:13;;;;;;;;;;;21.80;99.90;;;;;;4996249;28;19987;-31
2023/09/29 12:24:40;;;;;;;;;;;21.70;99.90;;;;;;4996987;28;19926;-31
2023/09/29 12:27:07;;;;;;;;;;;21.60;99.90;;;;;;5005413;28;19972;-31
2023/09/29 12:29:34;;;;;;;;;;;21.50;99.90;;;;;;4989309;28;19925;-32
2023/09/29 12:32:01;;;;;;;;;;;21.50;99.90;;;;;;4996382;28;19929;-34
2023/09/29 12:34:32;;;;;;;;;;;21.40;99.90;;;;;;4995828;28;19926;-33
2023/09/29 12:36:59;;;;;;;;;;;21.30;99.90;;;;;;4986435;28;19930;-34
2023/09/29 12:39:25;;;;;;;;;;;21.10;99.90;;;;;;4991752;28;19975;-34
2023/09/29 12:41:52;;;;;;;;;;;21.10;99.90;;;;;;5011874;28;19980;-34
2023/09/29 12:44:19;;;;;;;;;;;21.00;99.90;;;;;;5011799;28;20356;-33
2023/09/29 12:46:45;;;;;;;;;;;20.80;99.90;;;;;;5005060;28;19929;-31
2023/09/29 12:49:12;;;;;;;;;;;20.80;99.90;;;;;;4993933;28;19933;-33
2023/09/29 12:51:40;;;;;;;;;;;20.70;99.90;;;;;;4991951;28;19941;-33
2023/09/29 12:54:07;;;;;;;;;;;20.60;99.90;;;;;;4987358;28;19926;-32
2023/09/29 12:56:33;;;;;;;;;;;20.50;99.90;;;;;;5011007;28;19933;-32
2023/09/29 12:59:00;;;;;;;;;;;20.40;99.90;;;;;;5013242;28;19925;-31
2023/09/29 13:01:27;;;;;;;;;;;20.20;99.90;;;;;;4993331;28;20374;-32
2023/09/29 13:03:53;;;;;;;;;;;20.00;99.90;;;;;;4982845;28;19926;-33
2023/09/29 13:06:21;;;;;;;;;;;19.80;99.90;;;;;;5014294;28;19979;-32
2023/09/29 13:08:49;;;;;;;;;;;19.70;99.90;;;;;;5012878;28;19965;-32
2023/09/29 13:11:16;;;;;;;;;;;19.50;99.90;;;;;;5011548;28;19971;-33
2023/09/29 13:13:42;;;;;;;;;;;19.40;99.90;;;;;;4994134;28;19989;-32
2023/09/29 13:16:11;;;;;;;;;;;19.30;99.90;;;;;;4985830;28;20382;-33
2023/09/29 13:18:37;;;;;;;;;;;19.20;99.90;;;;;;5011444;28;20373;-31
2023/09/29 13:21:04;;;;;;;;;;;19.10;99.90;;;;;;4995214;28;19926;-31
2023/09/29 13:23:31;;;;;;;;;;;19.00;99.90;;;;;;4995819;28;19925;-32
2023/09/29 13:25:59;;;;;;;;;;;18.90;99.90;;;;;;4995409;28;19926;-32
2023/09/29 13:28:25;;;;;;;;;;;18.90;99.90;;;;;;4994783;28;19984;-31
2023/09/29 13:30:54;;;;;;;;;;;19.00;99.90;;;;;;5013073;28;19929;-31
2023/09/29 13:33:24;;;;;;;;;;;19.00;99.90;;;;;;4993580;28;20363;-31
2023/09/29 13:35:52;;;;;;;;;;;19.00;99.90;;;;;;4993432;28;19933;-32
2023/09/29 13:38:19;;;;;;;;;;;19.00;99.90;;;;;;4991269;28;19941;-31
2023/09/29 13:40:50;;;;;;;;;;;19.00;99.90;;;;;;5010089;28;19926;-32
2023/09/29 13:43:18;;;;;;;;;;;19.00;99.90;;;;;;5012008;28;19929;-33
2023/09/29 13:45:45;;;;;;;;;;;19.00;99.90;;;;;;5001737;28;20826;-32
2023/09/29 13:48:12;;;;;;;;;;;18.90;99.90;;;;;;4993916;28;20376;-33
2023/09/29 13:50:39;;;;;;;;;;;18.80;99.90;;;;;;4995884;28;20370;-31
2023/09/29 13:53:06;;;;;;;;;;;18.70;99.90;;;;;;4991678;28;19926;-33
2023/09/29 13:55:32;;;;;;;;;;;18.70;99.90;;;;;;5016723;28;20277;-31
2023/09/29 13:57:59;;;;;;;;;;;18.70;99.90;;;;;;4986348;28;19929;-31
2023/09/29 14:00:27;;;;;;;;;;;18.60;99.90;;;;;;4997692;28;19971;-32
2023/09/29 14:02:54;;;;;;;;;;;18.60;99.90;;;;;;4994014;28;19930;-31
2023/09/29 14:05:21;;;;;;;;;;;18.60;99.90;;;;;;5009292;28;20276;-31
2023/09/29 14:07:48;;;;;;;;;;;18.60;99.90;;;;;;5010687;28;19925;-32
2023/09/29 14:10:16;;;;;;;;;;;18.60;99.90;;;;;;5008774;28;19926;-31
2023/09/29 14:12:43;;;;;;;;;;;18.50;99.90;;;;;;4987697;28;19933;-32
2023/09/29 14:15:10;;;;;;;;;;;18.60;99.90;;;;;;4990013;28;19930;-34
2023/09/29 14:17:38;;;;;;;;;;;18.80;99.90;;;;;;5010025;28;20366;-32